createdAt,value
2022-09-15T00:02:23.358Z,11.53
2022-09-15T00:04:55.878Z,11.51
2022-09-15T00:07:28.382Z,11.52
2022-09-15T00:10:00.823Z,11.52
2022-09-15T00:12:34.135Z,11.51
2022-09-15T00:15:06.887Z,11.51
2022-09-15T00:17:39.306Z,11.49
2022-09-15T00:20:11.783Z,11.45
2022-09-15T00:22:44.303Z,11.43
2022-09-15T00:25:16.848Z,11.42
2022-09-15T00:27:49.580Z,11.41
2022-09-15T00:30:22.001Z,11.38
2022-09-15T00:32:54.408Z,11.37
2022-09-15T00:35:26.857Z,11.35
2022-09-15T00:37:59.223Z,11.37
2022-09-15T00:40:31.687Z,11.41
2022-09-15T00:43:09.987Z,11.44
2022-09-15T00:45:42.426Z,11.49
2022-09-15T00:48:20.635Z,11.51
2022-09-15T00:50:57.017Z,11.54
2022-09-15T00:53:31.718Z,11.56
2022-09-15T00:56:04.888Z,11.59
2022-09-15T00:58:45.070Z,11.58
2022-09-15T01:01:17.659Z,11.62
2022-09-15T01:03:50.456Z,11.61
2022-09-15T01:06:42.774Z,11.65
2022-09-15T01:09:53.613Z,11.67
2022-09-15T01:12:27.334Z,11.67
2022-09-15T01:15:03.048Z,11.69
2022-09-15T01:17:47.613Z,11.72
2022-09-15T01:20:45.138Z,11.75
2022-09-15T01:23:55.369Z,11.73
2022-09-15T01:26:43.916Z,11.76
2022-09-15T01:29:51.911Z,11.81
2022-09-15T01:33:04.585Z,11.84
2022-09-15T01:35:52.372Z,11.88
2022-09-15T01:38:29.705Z,11.88
2022-09-15T01:41:33.143Z,11.90
2022-09-15T01:44:12.813Z,11.91
2022-09-15T01:46:54.228Z,11.90
2022-09-15T01:49:30.731Z,11.87
2022-09-15T01:52:03.423Z,11.82
2022-09-15T01:54:44.255Z,11.80
2022-09-15T01:57:21.213Z,11.72
2022-09-15T01:59:55.826Z,11.67
2022-09-15T02:02:48.153Z,11.63
2022-09-15T02:05:45.254Z,11.59
2022-09-15T02:08:29.585Z,11.56
2022-09-15T02:11:13.788Z,11.53
2022-09-15T02:13:58.401Z,11.53
2022-09-15T02:16:35.270Z,11.56
2022-09-15T02:19:36.249Z,11.57
2022-09-15T02:22:31.037Z,11.59
2022-09-15T02:25:14.560Z,11.57
2022-09-15T02:27:51.221Z,11.58
2022-09-15T02:30:24.198Z,11.57
2022-09-15T02:33:00.089Z,11.54
2022-09-15T02:35:35.937Z,11.50
2022-09-15T02:38:10.935Z,11.48
2022-09-15T02:40:44.750Z,11.42
2022-09-15T02:43:18.013Z,11.39
2022-09-15T02:45:50.723Z,11.36
2022-09-15T02:48:25.224Z,11.32
2022-09-15T02:50:57.590Z,11.27
2022-09-15T02:53:30.005Z,11.20
2022-09-15T02:56:05.968Z,11.15
2022-09-15T02:58:38.440Z,11.08
2022-09-15T03:01:14.979Z,11.04
2022-09-15T03:03:47.540Z,11.01
2022-09-15T03:06:21.283Z,10.96
2022-09-15T03:08:56.506Z,10.92
2022-09-15T03:11:29.873Z,10.91
2022-09-15T03:14:05.930Z,10.87
2022-09-15T03:16:38.340Z,10.86
2022-09-15T03:19:10.889Z,10.84
2022-09-15T03:21:43.317Z,10.84
2022-09-15T03:24:15.784Z,10.83
2022-09-15T03:26:48.516Z,10.85
2022-09-15T03:29:20.960Z,10.87
2022-09-15T03:31:54.042Z,10.92
2022-09-15T03:34:26.717Z,10.96
2022-09-15T03:36:59.119Z,11.04
2022-09-15T03:39:31.454Z,11.09
2022-09-15T03:42:04.524Z,11.17
2022-09-15T03:44:36.972Z,11.22
2022-09-15T03:47:09.594Z,11.24
2022-09-15T03:49:42.025Z,11.26
2022-09-15T03:52:14.444Z,11.28
2022-09-15T03:54:48.700Z,11.28
2022-09-15T03:57:21.146Z,11.30
2022-09-15T03:59:53.560Z,11.29
2022-09-15T04:02:26.036Z,11.29
2022-09-15T04:04:58.851Z,11.32
2022-09-15T04:07:31.292Z,11.34
2022-09-15T04:10:04.605Z,11.33
2022-09-15T04:12:37.051Z,11.37
2022-09-15T04:15:09.996Z,11.37
2022-09-15T04:17:42.465Z,11.39
2022-09-15T04:20:15.187Z,11.38
2022-09-15T04:22:47.673Z,11.38
2022-09-15T04:25:20.094Z,11.39
2022-09-15T04:27:52.822Z,11.42
2022-09-15T04:30:25.369Z,11.45
2022-09-15T04:32:57.825Z,11.47
2022-09-15T04:35:30.213Z,11.50
2022-09-15T04:38:02.988Z,11.49
2022-09-15T04:40:35.441Z,11.51
2022-09-15T04:43:08.086Z,11.51
2022-09-15T04:45:40.965Z,11.54
2022-09-15T04:48:13.388Z,11.59
2022-09-15T04:50:45.781Z,11.59
2022-09-15T04:53:18.357Z,11.62
2022-09-15T04:55:50.740Z,11.64
2022-09-15T04:58:23.144Z,11.62
2022-09-15T05:00:55.575Z,11.64
2022-09-15T05:03:28.067Z,11.61
2022-09-15T05:06:00.588Z,11.60
2022-09-15T05:08:33.097Z,11.60
2022-09-15T05:11:11.408Z,11.63
2022-09-15T05:13:43.922Z,11.62
2022-09-15T05:16:19.357Z,11.62
2022-09-15T05:18:56.659Z,11.60
2022-09-15T05:21:29.264Z,11.59
2022-09-15T05:24:02.009Z,11.57
2022-09-15T05:26:34.437Z,11.58
2022-09-15T05:29:06.900Z,11.58
2022-09-15T05:31:39.387Z,11.59
2022-09-15T05:34:11.929Z,11.61
2022-09-15T05:36:44.325Z,11.63
2022-09-15T05:39:17.116Z,11.65
2022-09-15T05:41:49.555Z,11.69
2022-09-15T05:44:21.930Z,11.74
2022-09-15T05:46:54.378Z,11.78
2022-09-15T05:49:28.534Z,11.84
2022-09-15T05:52:01.160Z,11.91
2022-09-15T05:54:33.578Z,11.95
2022-09-15T05:57:05.950Z,11.97
2022-09-15T05:59:39.227Z,12.01
2022-09-15T06:02:11.815Z,12.04
2022-09-15T06:04:44.341Z,12.06
2022-09-15T06:07:16.976Z,12.08
2022-09-15T06:09:49.808Z,12.14
2022-09-15T06:12:22.209Z,12.16
2022-09-15T06:14:54.605Z,12.22
2022-09-15T06:17:27.241Z,12.21
2022-09-15T06:19:59.715Z,12.27
2022-09-15T06:22:32.890Z,12.28
2022-09-15T06:25:06.533Z,12.34
2022-09-15T06:27:42.238Z,12.44
2022-09-15T06:30:14.581Z,12.55
2022-09-15T06:32:48.462Z,12.63
2022-09-15T06:35:21.016Z,12.77
2022-09-15T06:37:53.377Z,12.86
2022-09-15T06:40:25.840Z,12.96
2022-09-15T06:42:58.331Z,12.96
2022-09-15T06:45:30.997Z,13.01
2022-09-15T06:48:23.495Z,13.05
2022-09-15T06:50:55.957Z,13.04
2022-09-15T06:53:30.080Z,13.08
2022-09-15T06:56:13.851Z,13.11
2022-09-15T06:58:49.214Z,13.13
2022-09-15T07:01:28.090Z,13.23
2022-09-15T07:04:01.799Z,13.38
2022-09-15T07:06:34.811Z,13.51
2022-09-15T07:09:07.313Z,13.65
2022-09-15T07:11:40.388Z,13.72
2022-09-15T07:14:12.830Z,13.84
2022-09-15T07:16:45.281Z,13.90
2022-09-15T07:19:17.803Z,13.88
2022-09-15T07:21:52.683Z,14.05
2022-09-15T07:24:25.148Z,14.16
2022-09-15T07:26:57.550Z,14.28
2022-09-15T07:29:29.952Z,14.34
2022-09-15T07:32:02.511Z,14.38
2022-09-15T07:34:35.012Z,14.42
2022-09-15T07:37:07.433Z,14.42
2022-09-15T07:39:39.834Z,14.59
2022-09-15T07:42:12.281Z,14.59
2022-09-15T07:44:44.636Z,14.70
2022-09-15T07:47:17.131Z,14.73
2022-09-15T07:49:50.290Z,14.83
2022-09-15T07:52:22.695Z,14.93
2022-09-15T07:54:55.096Z,15.05
2022-09-15T07:57:27.534Z,15.12
2022-09-15T07:59:59.978Z,15.15
2022-09-15T08:02:32.460Z,15.18
2022-09-15T08:05:05.137Z,15.18
2022-09-15T08:07:37.557Z,15.21
2022-09-15T08:10:10.186Z,15.31
2022-09-15T08:12:42.606Z,15.38
2022-09-15T08:15:15.219Z,15.07
2022-09-15T08:17:47.669Z,15.11
2022-09-15T08:20:20.755Z,15.17
2022-09-15T08:22:53.178Z,15.29
2022-09-15T08:25:25.801Z,15.44
2022-09-15T08:27:59.517Z,15.53
2022-09-15T08:30:32.179Z,15.55
2022-09-15T08:33:04.558Z,15.54
2022-09-15T08:35:37.341Z,15.35
2022-09-15T08:38:09.778Z,15.45
2022-09-15T08:40:45.554Z,15.49
2022-09-15T08:43:23.670Z,15.50
2022-09-15T08:46:03.837Z,15.52
2022-09-15T08:48:43.700Z,15.42
2022-09-15T08:51:23.188Z,15.38
2022-09-15T08:54:06.083Z,15.47
2022-09-15T08:56:41.293Z,15.61
2022-09-15T08:59:16.118Z,15.69
2022-09-15T09:01:51.623Z,15.78
2022-09-15T09:04:42.916Z,15.81
2022-09-15T09:07:37.002Z,15.86
2022-09-15T09:10:19.198Z,15.83
2022-09-15T09:13:09.181Z,15.94
2022-09-15T09:16:03.861Z,16.17
2022-09-15T09:18:46.942Z,16.10
2022-09-15T09:21:26.599Z,16.27
2022-09-15T09:24:16.996Z,16.28
2022-09-15T09:26:54.217Z,16.35
2022-09-15T09:29:34.665Z,16.53
2022-09-15T09:32:36.996Z,16.57
2022-09-15T09:35:24.865Z,16.63
2022-09-15T09:37:57.549Z,16.75
2022-09-15T09:40:31.570Z,16.78
2022-09-15T09:43:04.049Z,16.45
2022-09-15T09:45:36.992Z,16.24
2022-09-15T09:48:18.606Z,16.13
2022-09-15T09:50:51.441Z,16.02
2022-09-15T09:53:31.077Z,16.02
2022-09-15T09:56:25.843Z,16.00
2022-09-15T09:58:58.272Z,15.79
2022-09-15T10:01:30.962Z,15.72
2022-09-15T10:04:22.767Z,15.70
2022-09-15T10:06:56.341Z,15.69
2022-09-15T10:09:33.122Z,15.59
2022-09-15T10:12:07.375Z,15.45
2022-09-15T10:14:41.961Z,15.47
2022-09-15T10:17:37.445Z,15.13
2022-09-15T10:20:50.173Z,15.06
2022-09-15T10:23:31.319Z,15.08
2022-09-15T10:26:16.181Z,15.04
2022-09-15T10:29:17.472Z,15.13
2022-09-15T10:31:50.326Z,15.28
2022-09-15T10:34:31.124Z,15.26
2022-09-15T10:37:32.333Z,15.35
2022-09-15T10:40:21.884Z,15.48
2022-09-15T10:43:04.617Z,15.66
2022-09-15T10:45:48.363Z,15.80
2022-09-15T10:48:26.844Z,16.01
2022-09-15T10:51:05.641Z,15.95
2022-09-15T10:53:53.633Z,16.01
2022-09-15T10:56:38.293Z,16.00
2022-09-15T10:59:24.915Z,15.61
2022-09-15T11:02:19.653Z,15.54
2022-09-15T11:04:58.292Z,15.70
2022-09-15T11:07:58.730Z,15.89
2022-09-15T11:10:59.290Z,16.00
2022-09-15T11:13:53.279Z,16.01
2022-09-15T11:16:28.929Z,15.94
2022-09-15T11:19:17.304Z,16.00
2022-09-15T11:21:56.234Z,16.16
2022-09-15T11:24:51.505Z,16.49
2022-09-15T11:27:36.775Z,16.60
2022-09-15T11:30:45.661Z,16.84
2022-09-15T11:33:31.157Z,16.98
2022-09-15T11:36:14.472Z,17.20
2022-09-15T11:38:59.197Z,17.41
2022-09-15T11:41:36.227Z,17.49
2022-09-15T11:44:34.737Z,17.34
2022-09-15T11:47:11.539Z,17.33
2022-09-15T11:49:58.320Z,17.29
2022-09-15T11:52:46.636Z,17.49
2022-09-15T11:55:25.029Z,17.49
2022-09-15T11:58:21.810Z,17.48
2022-09-15T12:01:10.140Z,17.38
2022-09-15T12:04:08.460Z,17.18
2022-09-15T12:09:33.293Z,17.33
2022-09-15T12:12:12.230Z,17.41
2022-09-15T12:14:46.899Z,17.18
2022-09-15T12:17:45.341Z,17.20
2022-09-15T12:20:24.167Z,17.09
2022-09-15T12:23:21.835Z,17.05
2022-09-15T12:26:04.106Z,17.35
2022-09-15T12:28:39.902Z,17.37
2022-09-15T12:31:25.493Z,17.56
2022-09-15T12:33:57.937Z,17.78
2022-09-15T12:36:35.049Z,18.01
2022-09-15T12:39:28.638Z,17.70
2022-09-15T12:42:00.957Z,18.19
2022-09-15T12:44:42.243Z,18.46
2022-09-15T12:47:23.435Z,18.40
2022-09-15T12:50:18.151Z,18.26
2022-09-15T12:52:59.901Z,17.95
2022-09-15T12:55:34.161Z,17.49
2022-09-15T12:58:15.812Z,17.55
2022-09-15T13:01:14.329Z,17.60
2022-09-15T13:06:24.135Z,17.72
2022-09-15T13:09:03.123Z,17.93
2022-09-15T13:11:38.248Z,18.17
2022-09-15T13:14:20.520Z,18.19
2022-09-15T13:17:16.534Z,18.07
2022-09-15T13:19:53.226Z,17.84
2022-09-15T13:22:48.671Z,18.09
2022-09-15T13:25:29.161Z,18.21
2022-09-15T13:28:02.842Z,18.23
2022-09-15T13:31:04.212Z,18.05
2022-09-15T13:40:33.784Z,18.33
2022-09-15T13:43:29.293Z,18.04
2022-09-15T13:46:12.527Z,17.91
2022-09-15T13:49:22.588Z,17.91
2022-09-15T13:52:07.408Z,17.80
2022-09-15T13:55:15.428Z,17.78
2022-09-15T14:00:55.165Z,17.71
2022-09-15T14:03:39.827Z,17.94
2022-09-15T14:06:21.063Z,17.80
2022-09-15T14:08:58.632Z,17.73
2022-09-15T14:11:33.549Z,17.56
2022-09-15T14:14:11.500Z,17.42
2022-09-15T14:16:49.612Z,17.35
2022-09-15T14:19:36.765Z,17.40
2022-09-15T14:22:18.737Z,17.22
2022-09-15T14:24:51.285Z,17.09
2022-09-15T14:27:33.755Z,17.21
2022-09-15T14:30:09.020Z,17.10
2022-09-15T14:32:45.647Z,16.91
2022-09-15T14:35:23.335Z,16.90
2022-09-15T14:37:58.946Z,16.84
2022-09-15T14:40:36.070Z,16.85
2022-09-15T14:43:30.783Z,16.87
2022-09-15T14:46:14.675Z,16.81
2022-09-15T14:48:47.261Z,16.74
2022-09-15T14:51:24.914Z,16.75
2022-09-15T14:54:00.195Z,16.73
2022-09-15T14:56:41.145Z,16.71
2022-09-15T14:59:25.144Z,16.66
2022-09-15T15:02:18.618Z,16.45
2022-09-15T15:05:08.605Z,16.33
2022-09-15T15:07:42.376Z,16.41
2022-09-15T15:10:32.183Z,16.36
2022-09-15T15:13:12.902Z,16.35
2022-09-15T15:15:46.301Z,16.12
2022-09-15T15:18:32.196Z,16.13
2022-09-15T15:21:06.501Z,16.02
2022-09-15T15:23:46.879Z,16.08
2022-09-15T15:26:37.995Z,15.97
2022-09-15T15:29:38.868Z,15.89
2022-09-15T15:32:22.243Z,15.67
2022-09-15T15:34:59.708Z,15.67
2022-09-15T15:37:34.514Z,15.60
2022-09-15T15:40:17.211Z,15.46
2022-09-15T15:43:05.799Z,15.30
2022-09-15T15:45:50.125Z,15.30
2022-09-15T15:48:22.683Z,15.27
2022-09-15T15:50:56.243Z,15.24
2022-09-15T15:53:31.461Z,15.24
2022-09-15T15:56:04.701Z,15.24
2022-09-15T15:58:37.111Z,15.26
2022-09-15T16:01:11.528Z,15.25
2022-09-15T16:03:43.902Z,15.28
2022-09-15T16:06:16.362Z,15.25
2022-09-15T16:08:49.537Z,15.12
2022-09-15T16:11:22.089Z,15.21
2022-09-15T16:13:54.461Z,15.08
2022-09-15T16:16:27.282Z,15.17
2022-09-15T16:18:59.909Z,15.15
2022-09-15T16:21:43.045Z,15.15
2022-09-15T16:24:16.225Z,15.24
2022-09-15T16:26:53.592Z,15.08
2022-09-15T16:29:29.937Z,15.27
2022-09-15T16:32:04.428Z,15.26
2022-09-15T16:34:36.875Z,15.21
2022-09-15T16:37:10.465Z,15.05
2022-09-15T16:39:42.951Z,15.11
2022-09-15T16:42:15.440Z,14.93
2022-09-15T16:44:47.860Z,14.89
2022-09-15T16:47:20.538Z,14.80
2022-09-15T16:49:53.051Z,14.69
2022-09-15T16:52:25.567Z,14.70
2022-09-15T16:55:00.910Z,14.53
2022-09-15T16:57:33.342Z,14.47
2022-09-15T17:00:06.200Z,14.47
2022-09-15T17:02:38.826Z,14.44
2022-09-15T17:05:34.734Z,14.35
2022-09-15T17:08:09.774Z,14.29
2022-09-15T17:10:42.640Z,14.25
2022-09-15T17:13:18.280Z,14.19
2022-09-15T17:15:53.845Z,14.23
2022-09-15T17:18:27.362Z,14.21
2022-09-15T17:20:59.835Z,14.22
2022-09-15T17:23:38.315Z,14.19
2022-09-15T17:26:14.826Z,14.21
2022-09-15T17:28:47.824Z,14.17
2022-09-15T17:31:23.676Z,14.20
2022-09-15T17:33:56.310Z,14.15
2022-09-15T17:36:28.688Z,14.12
2022-09-15T17:39:01.179Z,14.07
2022-09-15T17:41:33.662Z,14.05
2022-09-15T17:44:11.353Z,14.06
2022-09-15T17:46:43.882Z,14.04
2022-09-15T17:49:16.308Z,14.03
2022-09-15T17:51:48.865Z,14.00
2022-09-15T17:54:21.402Z,14.01
2022-09-15T17:56:54.100Z,14.00
2022-09-15T17:59:26.759Z,13.97
2022-09-15T18:01:59.661Z,13.97
2022-09-15T18:04:32.396Z,13.94
2022-09-15T18:07:09.256Z,13.85
2022-09-15T18:09:41.707Z,13.79
2022-09-15T18:12:14.561Z,13.71
2022-09-15T18:14:47.570Z,13.67
2022-09-15T18:17:20.316Z,13.62
2022-09-15T18:19:53.036Z,13.57
2022-09-15T18:22:25.677Z,13.53
2022-09-15T18:24:58.252Z,13.50
2022-09-15T18:27:30.775Z,13.48
2022-09-15T18:30:03.954Z,13.45
2022-09-15T18:32:36.520Z,13.41
2022-09-15T18:35:09.687Z,13.40
2022-09-15T18:37:43.044Z,13.36
2022-09-15T18:40:17.585Z,13.29
2022-09-15T18:42:50.602Z,13.21
2022-09-15T18:45:23.218Z,13.12
2022-09-15T18:47:55.834Z,13.03
2022-09-15T18:50:28.452Z,12.94
2022-09-15T18:53:01.207Z,12.88
2022-09-15T18:55:33.678Z,12.81
2022-09-15T18:58:06.274Z,12.74
2022-09-15T19:00:39.320Z,12.63
2022-09-15T19:03:14.085Z,12.51
2022-09-15T19:05:46.778Z,12.42
2022-09-15T19:08:19.585Z,12.32
2022-09-15T19:10:59.454Z,12.23
2022-09-15T19:13:32.410Z,12.18
2022-09-15T19:16:06.747Z,12.12
2022-09-15T19:18:39.419Z,12.11
2022-09-15T19:21:12.138Z,12.10
2022-09-15T19:23:45.231Z,12.18
2022-09-15T19:26:17.811Z,12.21
2022-09-15T19:28:50.962Z,12.33
2022-09-15T19:31:25.290Z,12.35
2022-09-15T19:33:57.986Z,12.36
2022-09-15T19:36:31.675Z,12.37
2022-09-15T19:39:04.610Z,12.36
2022-09-15T19:41:37.250Z,12.35
2022-09-15T19:44:10.856Z,12.32
2022-09-15T19:46:43.824Z,12.28
2022-09-15T19:49:16.786Z,12.27
2022-09-15T19:51:55.271Z,12.22
2022-09-15T19:54:29.901Z,12.17
2022-09-15T19:57:02.750Z,12.12
2022-09-15T19:59:35.517Z,12.06
2022-09-15T20:02:10.225Z,12.03
2022-09-15T20:04:42.852Z,11.94
2022-09-15T20:07:15.542Z,11.89
2022-09-15T20:09:48.302Z,11.81
2022-09-15T20:14:53.365Z,11.72
2022-09-15T20:17:25.995Z,11.71
2022-09-15T20:19:58.512Z,11.70
2022-09-15T20:22:31.103Z,11.66
2022-09-15T20:25:04.299Z,11.64
2022-09-15T20:27:37.202Z,11.59
2022-09-15T20:30:10.503Z,11.53
2022-09-15T20:32:43.387Z,11.48
2022-09-15T20:35:16.133Z,11.47
2022-09-15T20:37:49.526Z,11.47
2022-09-15T20:40:22.247Z,11.50
2022-09-15T20:42:54.856Z,11.56
2022-09-15T20:45:27.680Z,11.59
2022-09-15T20:48:00.449Z,11.64
2022-09-15T20:50:33.276Z,11.63
2022-09-15T20:53:05.794Z,11.62
2022-09-15T20:55:38.342Z,11.63
2022-09-15T20:58:10.989Z,11.66
2022-09-15T21:00:43.641Z,11.71
2022-09-15T21:03:16.566Z,11.70
2022-09-15T21:05:49.146Z,11.72
2022-09-15T21:08:21.848Z,11.74
2022-09-15T21:10:55.237Z,11.78
2022-09-15T21:13:29.947Z,11.81
2022-09-15T21:16:05.974Z,11.80
2022-09-15T21:18:39.910Z,11.79
2022-09-15T21:21:14.639Z,11.79
2022-09-15T21:23:49.575Z,11.78
2022-09-15T21:26:25.018Z,11.76
2022-09-15T21:28:57.985Z,11.75
2022-09-15T21:31:35.844Z,11.75
2022-09-15T21:34:08.629Z,11.74
2022-09-15T21:36:41.176Z,11.67
2022-09-15T21:39:13.837Z,11.67
2022-09-15T21:41:46.546Z,11.62
2022-09-15T21:44:19.229Z,11.60
2022-09-15T21:46:52.863Z,11.60
2022-09-15T21:49:25.418Z,11.58
2022-09-15T21:51:58.213Z,11.56
2022-09-15T21:54:31.609Z,11.59
2022-09-15T21:57:04.167Z,11.59
2022-09-15T21:59:36.745Z,11.60
2022-09-15T22:02:10.153Z,11.59
2022-09-15T22:04:42.769Z,11.57
2022-09-15T22:07:18.818Z,11.53
2022-09-15T22:09:51.527Z,11.51
2022-09-15T22:12:27.114Z,11.49
2022-09-15T22:14:59.622Z,11.42
2022-09-15T22:17:32.277Z,11.33
2022-09-15T22:20:07.927Z,11.24
2022-09-15T22:22:40.756Z,11.14
2022-09-15T22:25:13.389Z,11.02
2022-09-15T22:27:45.863Z,10.89
2022-09-15T22:30:18.733Z,10.78
2022-09-15T22:32:52.351Z,10.67
2022-09-15T22:35:25.148Z,10.60
2022-09-15T22:37:57.837Z,10.48
2022-09-15T22:40:31.113Z,10.38
2022-09-15T22:43:03.754Z,10.30
2022-09-15T22:45:36.317Z,10.25
2022-09-15T22:48:08.883Z,10.18
2022-09-15T22:50:45.637Z,10.12
2022-09-15T22:53:18.288Z,10.09
2022-09-15T22:55:51.743Z,10.04
2022-09-15T22:58:24.364Z,10.01
2022-09-15T23:01:24.654Z,9.97
2022-09-15T23:03:59.886Z,9.92
2022-09-15T23:06:34.439Z,9.89
2022-09-15T23:09:09.392Z,9.87
2022-09-15T23:11:42.375Z,9.87
2022-09-15T23:14:19.931Z,9.94
2022-09-15T23:16:52.485Z,10.00
2022-09-15T23:19:25.322Z,10.08
2022-09-15T23:21:57.995Z,10.15
2022-09-15T23:24:31.796Z,10.19
2022-09-15T23:27:04.680Z,10.23
2022-09-15T23:29:37.240Z,10.20
2022-09-15T23:32:09.866Z,10.20
2022-09-15T23:34:42.511Z,10.20
2022-09-15T23:37:15.134Z,10.22
2022-09-15T23:39:47.889Z,10.26
2022-09-15T23:42:20.585Z,10.31
2022-09-15T23:44:53.186Z,10.40
2022-09-15T23:47:25.844Z,10.47
2022-09-15T23:50:00.452Z,10.54
2022-09-15T23:52:33.219Z,10.60
2022-09-15T23:55:06.316Z,10.64
2022-09-15T23:57:38.924Z,10.67
